TMX weather

Timimoun Airport
Timimoun, Adrar Province, Algeria

Public forecast

Using degrees Celsius for public forecast. Weather courtesy of forecast.io.

Current aviation weather report (METAR) for Timimoun Airport

Retrieved 2020/04/02 05:00 UTC (19 minutes ago):

DAUT 020500Z 19009KT CAVOK 17/M11 Q1006

Aviation forecast (TAF) for Timimoun Airport

Forecast is more than 12 hours old.

Retrieved 2017/11/09 18:03 UTC (2 years ago):

TAF DAUT 091700Z 0918/1009 22012KT CAVOK